VIP Ground Handling & Aviation Services

 

 
Airport

CHANIA (CHQ)

Ground Handling Services – CHQ/LGSA

VIP Ground Handling

State Ground Handling

Military Ground Handling

Slot & PPR Coordination

Fuel Arrangements

Crew Accommodation Arrangements

Crew Transportation

Customs & Immigration Assistance

Executive Terminal Services

Crew Lounge

Flight Planning, Weather Briefing and NOTAMs

Catering Arrangements

Security Services

Aircraft Maintenance

Airport Customs & Immigration

Concierge Services

VIP Meet & Greet

Helicopter Transfers

Chauffeur Services

Aircraft Charter

Yacht Charter

Hire & Rental

Entertainment & Hospitality

Health & Beauty

Delivery Services

Conference & Meeting rooms

Chania Airport “Ioannis Daskalogiannis”, Chania 731 00

+30 210 35 33 331 (24/7)

+30 694 6200 300 (24/7)

greece@alphajetservices.com

Chania Airport
Airport Type
•Joint Civil / Military
Operating Hours
•Check NOTAMS / Contact Us
Fuel Available
•JET A1
Fire Category
•8
Approaches
•VOR / DME NDB
Available data for LGSA from the past 2 hours
SOUDA/KHANIA (AF
Metar
LGSA 260950Z 31012KT CAVOK 30/19 Q1013

09:50 UTC

Wind: 310° 12kt

Visibility:

Sky:

Temp: 30 deg C / 86 deg F

Dewpoint: 19 deg C / 66.2 deg F

Pressure: 1013 hPa

TAF
TAF LGSA 260500Z 2606/2706 31010KT 9999 FEW025